createdAt,value
2019-05-06T00:02:13.838Z,6.84
2019-05-06T00:07:16.990Z,6.93
2019-05-06T00:12:19.932Z,6.77
2019-05-06T00:17:23.945Z,6.81
2019-05-06T00:22:27.234Z,6.80
2019-05-06T00:27:56.109Z,6.75
2019-05-06T00:32:59.175Z,6.78
2019-05-06T00:38:04.382Z,6.78
2019-05-06T00:43:08.615Z,6.79
2019-05-06T00:48:13.854Z,6.78
2019-05-06T00:53:18.783Z,6.75
2019-05-06T00:58:23.779Z,6.73
2019-05-06T01:03:28.690Z,6.77
2019-05-06T01:08:31.951Z,6.73
2019-05-06T01:13:40.540Z,6.78
2019-05-06T01:18:43.610Z,6.73
2019-05-06T01:23:46.848Z,6.78
2019-05-06T01:28:50.369Z,6.81
2019-05-06T01:33:53.668Z,6.85
2019-05-06T01:39:31.619Z,6.90
2019-05-06T01:44:34.581Z,6.95
2019-05-06T01:49:37.559Z,6.97
2019-05-06T01:54:40.610Z,7.01
2019-05-06T01:59:44.372Z,7.01
2019-05-06T02:04:47.485Z,7.06
2019-05-06T02:09:50.523Z,7.01
2019-05-06T02:14:54.346Z,6.94
2019-05-06T02:19:57.427Z,6.90
2019-05-06T02:25:05.980Z,6.88
2019-05-06T02:30:25.211Z,6.75
2019-05-06T02:35:41.509Z,6.76
2019-05-06T02:40:44.536Z,6.67
2019-05-06T02:45:47.489Z,6.64
2019-05-06T02:51:03.864Z,6.63
2019-05-06T02:56:07.285Z,6.62
2019-05-06T03:01:13.392Z,6.57
2019-05-06T03:06:15.413Z,6.54
2019-05-06T03:11:18.456Z,6.46
2019-05-06T03:16:23.783Z,6.39
2019-05-06T03:21:45.063Z,6.40
2019-05-06T03:26:56.136Z,6.33
2019-05-06T03:31:56.357Z,6.26
2019-05-06T03:36:59.726Z,6.24
2019-05-06T03:42:04.675Z,6.19
2019-05-06T03:47:27.165Z,6.09
2019-05-06T03:52:30.157Z,6.13
2019-05-06T03:57:36.173Z,6.18
2019-05-06T04:02:39.912Z,6.17
2019-05-06T04:07:46.109Z,6.17
2019-05-06T04:12:53.552Z,6.22
2019-05-06T04:17:59.911Z,6.35
2019-05-06T04:23:23.527Z,6.27
2019-05-06T04:28:29.289Z,6.27
2019-05-06T04:33:33.517Z,6.42
2019-05-06T04:38:37.047Z,6.39
2019-05-06T04:43:40.421Z,6.36
2019-05-06T04:48:45.397Z,6.45
2019-05-06T04:53:48.454Z,6.45
2019-05-06T04:58:53.910Z,6.57
2019-05-06T05:03:56.878Z,6.64
2019-05-06T05:09:02.570Z,6.57
2019-05-06T05:14:25.940Z,6.69
2019-05-06T05:19:32.684Z,6.88
2019-05-06T05:24:37.866Z,6.66
2019-05-06T05:29:42.367Z,6.71
2019-05-06T05:34:45.818Z,6.55
2019-05-06T05:39:49.300Z,6.60
2019-05-06T05:44:53.467Z,6.71
2019-05-06T05:50:22.823Z,6.74
2019-05-06T05:55:26.561Z,6.87
2019-05-06T06:00:32.472Z,6.93
2019-05-06T06:05:35.057Z,6.77
2019-05-06T06:10:49.536Z,6.77
2019-05-06T06:16:02.882Z,6.68
2019-05-06T06:21:32.027Z,6.80
2019-05-06T06:26:34.983Z,6.86
2019-05-06T06:32:09.374Z,7.12
2019-05-06T06:37:33.054Z,6.95
2019-05-06T06:42:36.028Z,7.14
2019-05-06T06:47:39.180Z,6.99
2019-05-06T06:52:42.931Z,6.93
2019-05-06T06:58:22.600Z,7.08
2019-05-06T07:03:37.772Z,7.20
2019-05-06T07:08:42.615Z,7.25
2019-05-06T07:13:53.244Z,7.16
2019-05-06T07:18:56.616Z,7.32
2019-05-06T07:23:59.578Z,7.21
2019-05-06T07:29:03.901Z,7.62
2019-05-06T07:34:07.728Z,7.42
2019-05-06T07:39:14.750Z,7.52
2019-05-06T07:44:33.339Z,7.62
2019-05-06T07:49:36.560Z,7.45
2019-05-06T07:54:39.572Z,7.52
2019-05-06T07:59:43.009Z,7.44
2019-05-06T08:04:46.156Z,7.63
2019-05-06T08:09:49.120Z,7.68
2019-05-06T08:14:52.501Z,7.43
2019-05-06T08:19:55.872Z,7.42
2019-05-06T08:24:58.965Z,7.28
2019-05-06T08:30:02.624Z,7.25
2019-05-06T08:35:06.182Z,7.41
2019-05-06T08:40:12.000Z,7.47
2019-05-06T08:45:15.501Z,7.29
2019-05-06T08:50:43.902Z,7.43
2019-05-06T08:55:47.563Z,7.45
2019-05-06T09:00:57.615Z,7.52
2019-05-06T09:06:02.998Z,7.47
2019-05-06T09:11:05.586Z,7.77
2019-05-06T09:16:08.673Z,7.70
2019-05-06T09:21:12.268Z,7.82
2019-05-06T09:26:18.287Z,7.97
2019-05-06T09:31:24.931Z,7.81
2019-05-06T09:36:39.824Z,7.88
2019-05-06T09:41:32.767Z,7.51
2019-05-06T09:46:35.786Z,7.84
2019-05-06T09:51:39.456Z,7.67
2019-05-06T09:56:47.740Z,7.51
2019-05-06T10:01:52.855Z,7.61
2019-05-06T10:06:59.778Z,7.72
2019-05-06T10:12:02.045Z,7.95
2019-05-06T10:17:05.549Z,7.85
2019-05-06T10:22:08.521Z,7.86
2019-05-06T10:27:12.084Z,7.92
2019-05-06T10:32:27.064Z,8.00
2019-05-06T10:37:42.244Z,8.07
2019-05-06T10:43:13.215Z,7.86
2019-05-06T10:48:16.182Z,8.02
2019-05-06T10:53:23.632Z,7.97
2019-05-06T10:58:26.762Z,7.93
2019-05-06T11:03:29.732Z,8.09
2019-05-06T11:08:32.842Z,8.24
2019-05-06T11:13:36.012Z,8.43
2019-05-06T11:18:39.098Z,8.60
2019-05-06T11:23:42.351Z,8.64
2019-05-06T11:28:49.326Z,8.51
2019-05-06T11:34:00.166Z,8.72
2019-05-06T11:39:05.268Z,8.89
2019-05-06T11:44:09.178Z,9.11
2019-05-06T11:49:12.625Z,9.21
2019-05-06T11:54:20.337Z,9.16
2019-05-06T11:59:22.692Z,9.24
2019-05-06T12:04:26.087Z,9.51
2019-05-06T12:09:29.146Z,9.49
2019-05-06T12:14:32.129Z,9.72
2019-05-06T12:19:35.128Z,9.89
2019-05-06T12:24:38.087Z,9.77
2019-05-06T12:29:42.857Z,9.78
2019-05-06T12:34:46.208Z,10.01
2019-05-06T12:39:53.558Z,9.87
2019-05-06T12:45:14.886Z,10.18
2019-05-06T12:50:18.024Z,9.88
2019-05-06T12:55:25.207Z,9.97
2019-05-06T13:00:30.829Z,10.00
2019-05-06T13:05:33.820Z,9.96
2019-05-06T13:10:36.773Z,10.14
2019-05-06T13:15:39.897Z,9.84
2019-05-06T13:20:50.077Z,9.87
2019-05-06T13:25:48.046Z,9.86
2019-05-06T13:30:53.174Z,10.00
2019-05-06T13:35:56.501Z,9.97
2019-05-06T13:40:59.874Z,9.93
2019-05-06T13:46:07.388Z,10.10
2019-05-06T13:51:14.279Z,10.05
2019-05-06T13:56:16.702Z,10.10
2019-05-06T14:01:22.933Z,10.21
2019-05-06T14:06:26.540Z,10.09
2019-05-06T14:11:29.886Z,10.07
2019-05-06T14:16:33.572Z,10.35
2019-05-06T14:21:36.675Z,10.29
2019-05-06T14:26:45.753Z,10.07
2019-05-06T14:31:52.490Z,10.10
2019-05-06T14:36:54.853Z,10.09
2019-05-06T14:41:57.830Z,10.18
2019-05-06T14:47:09.227Z,10.19
2019-05-06T14:52:13.158Z,10.37
2019-05-06T14:57:17.594Z,10.34
2019-05-06T15:02:26.083Z,10.42
2019-05-06T15:07:29.010Z,10.33
2019-05-06T15:12:33.436Z,10.32
2019-05-06T15:17:36.975Z,10.25
2019-05-06T15:22:42.062Z,10.31
2019-05-06T15:27:45.294Z,10.26
2019-05-06T15:32:48.294Z,10.16
2019-05-06T15:38:02.775Z,10.22
2019-05-06T15:43:05.865Z,10.20
2019-05-06T15:48:08.942Z,10.26
2019-05-06T15:53:12.631Z,10.16
2019-05-06T15:58:15.768Z,10.15
2019-05-06T16:03:18.770Z,10.22
2019-05-06T16:08:24.234Z,10.16
2019-05-06T16:13:26.830Z,10.06
2019-05-06T16:18:29.837Z,10.09
2019-05-06T16:23:42.312Z,10.05
2019-05-06T16:28:45.565Z,9.96
2019-05-06T16:33:48.647Z,9.99
2019-05-06T16:38:52.556Z,9.98
2019-05-06T16:43:57.340Z,9.98
2019-05-06T16:49:02.307Z,9.92
2019-05-06T16:54:05.284Z,9.96
2019-05-06T16:59:08.435Z,9.97
2019-05-06T17:04:19.583Z,9.91
2019-05-06T17:09:27.038Z,9.88
2019-05-06T17:14:27.437Z,9.79
2019-05-06T17:19:32.377Z,9.69
2019-05-06T17:24:35.588Z,9.62
2019-05-06T17:29:55.467Z,9.60
2019-05-06T17:34:58.684Z,9.54
2019-05-06T17:40:07.960Z,9.49
2019-05-06T17:45:25.914Z,9.46
2019-05-06T17:50:28.845Z,9.49
2019-05-06T17:55:32.795Z,9.43
2019-05-06T18:00:36.115Z,9.45
2019-05-06T18:05:39.108Z,9.44
2019-05-06T18:10:42.722Z,9.39
2019-05-06T18:15:45.968Z,9.34
2019-05-06T18:20:48.990Z,9.15
2019-05-06T18:25:53.025Z,9.13
2019-05-06T18:30:56.228Z,9.12
2019-05-06T18:35:59.279Z,9.05
2019-05-06T18:41:02.363Z,9.03
2019-05-06T18:46:05.402Z,8.88
2019-05-06T18:51:08.605Z,8.84
2019-05-06T18:56:12.738Z,8.53
2019-05-06T19:01:15.956Z,8.40
2019-05-06T19:06:19.076Z,8.68
2019-05-06T19:11:22.419Z,8.82
2019-05-06T19:16:25.693Z,8.86
2019-05-06T19:21:28.963Z,8.93
2019-05-06T19:26:32.730Z,8.96
2019-05-06T19:31:36.152Z,8.91
2019-05-06T19:36:39.161Z,8.90
2019-05-06T19:41:42.293Z,8.72
2019-05-06T19:46:45.336Z,8.80
2019-05-06T19:51:48.466Z,8.51
2019-05-06T19:56:52.720Z,8.61
2019-05-06T20:01:56.201Z,8.64
2019-05-06T20:07:05.244Z,8.82
2019-05-06T20:12:14.330Z,8.81
2019-05-06T20:17:17.348Z,8.70
2019-05-06T20:22:20.458Z,8.66
2019-05-06T20:27:23.685Z,8.96
2019-05-06T20:32:26.957Z,8.86
2019-05-06T20:37:30.092Z,8.84
2019-05-06T20:42:33.047Z,8.87
2019-05-06T20:47:36.598Z,8.94
2019-05-06T20:52:42.287Z,8.99
2019-05-06T20:57:44.993Z,8.94
2019-05-06T21:02:47.973Z,8.80
2019-05-06T21:07:52.623Z,8.72
2019-05-06T21:12:55.795Z,8.81
2019-05-06T21:18:03.602Z,8.74
2019-05-06T21:23:04.145Z,8.73
2019-05-06T21:28:07.181Z,8.70
2019-05-06T21:33:12.247Z,8.69
2019-05-06T21:38:15.191Z,8.70
2019-05-06T21:43:18.298Z,8.75
2019-05-06T21:48:22.221Z,8.70
2019-05-06T21:53:25.261Z,8.64
2019-05-06T21:58:28.236Z,8.65
2019-05-06T22:03:32.654Z,8.64
2019-05-06T22:08:35.906Z,8.59
2019-05-06T22:13:38.995Z,8.57
2019-05-06T22:18:43.226Z,8.57
2019-05-06T22:23:57.755Z,8.49
2019-05-06T22:29:02.059Z,8.46
2019-05-06T22:34:05.220Z,8.47
2019-05-06T22:39:08.235Z,8.42
2019-05-06T22:44:14.032Z,8.37
2019-05-06T22:49:16.033Z,8.32
2019-05-06T22:54:18.988Z,8.26
2019-05-06T22:59:25.003Z,8.22
2019-05-06T23:04:29.760Z,8.17
2019-05-06T23:09:32.776Z,8.11
2019-05-06T23:14:37.224Z,8.04
2019-05-06T23:19:42.623Z,7.96
2019-05-06T23:24:45.295Z,7.93
2019-05-06T23:29:48.646Z,7.84
2019-05-06T23:34:52.346Z,7.83
2019-05-06T23:40:52.164Z,7.78
2019-05-06T23:46:52.830Z,7.72
2019-05-06T23:52:52.013Z,7.67
2019-05-06T23:57:53.675Z,7.68
